createdAt,value
2022-11-19T00:03:34.906Z,17.15
2022-11-19T00:06:09.307Z,18.20
2022-11-19T00:08:36.272Z,17.80
2022-11-19T00:11:09.782Z,16.20
2022-11-19T00:13:37.883Z,15.88
2022-11-19T00:16:10.313Z,17.25
2022-11-19T00:18:37.080Z,15.45
2022-11-19T00:21:10.161Z,14.88
2022-11-19T00:23:37.825Z,16.23
2022-11-19T00:26:12.482Z,15.85
2022-11-19T00:28:39.714Z,15.70
2022-11-19T00:31:08.950Z,15.20
2022-11-19T00:33:36.223Z,14.73
2022-11-19T00:36:04.398Z,14.43
2022-11-19T00:38:32.180Z,16.13
2022-11-19T00:40:59.367Z,17.23
2022-11-19T00:43:44.952Z,13.70
2022-11-19T00:46:12.414Z,15.50
2022-11-19T00:48:39.422Z,16.55
2022-11-19T00:51:07.372Z,17.45
2022-11-19T00:53:34.551Z,18.63
2022-11-19T00:56:02.393Z,19.45
2022-11-19T00:58:29.231Z,18.73
2022-11-19T01:00:56.140Z,21.67
2022-11-19T01:03:24.137Z,21.60
2022-11-19T01:05:51.421Z,21.85
2022-11-19T01:08:18.376Z,23.83
2022-11-19T01:10:45.747Z,23.42
2022-11-19T01:13:31.263Z,24.55
2022-11-19T01:15:58.303Z,20.15
2022-11-19T01:18:25.182Z,23.73
2022-11-19T01:20:52.353Z,23.27
2022-11-19T01:23:19.132Z,24.00
2022-11-19T01:25:46.087Z,26.20
2022-11-19T01:28:13.308Z,23.77
2022-11-19T01:30:43.034Z,27.48
2022-11-19T01:33:10.089Z,23.15
2022-11-19T01:35:37.043Z,24.02
2022-11-19T01:38:05.234Z,28.10
2022-11-19T01:40:32.443Z,26.98
2022-11-19T01:42:59.145Z,25.92
2022-11-19T01:45:37.809Z,25.00
2022-11-19T01:48:10.017Z,22.65
2022-11-19T01:50:46.159Z,23.58
2022-11-19T01:53:13.654Z,25.15
2022-11-19T01:55:43.173Z,26.40
2022-11-19T01:58:12.019Z,26.35
2022-11-19T02:00:38.751Z,24.70
2022-11-19T02:03:05.542Z,25.00
2022-11-19T02:05:33.167Z,28.15
2022-11-19T02:07:59.933Z,26.10
2022-11-19T02:10:59.072Z,24.75
2022-11-19T02:13:29.651Z,25.23
2022-11-19T02:16:15.229Z,28.40
2022-11-19T02:18:41.931Z,29.77
2022-11-19T02:21:21.781Z,27.13
2022-11-19T02:24:10.126Z,24.50
2022-11-19T02:27:12.179Z,27.60
2022-11-19T02:30:08.244Z,26.77
2022-11-19T02:32:43.154Z,24.85
2022-11-19T02:35:18.951Z,26.75
2022-11-19T02:37:54.613Z,29.85
2022-11-19T02:40:28.686Z,29.77
2022-11-19T02:43:23.614Z,31.25
2022-11-19T02:45:59.301Z,35.85
2022-11-19T02:48:33.990Z,31.02
2022-11-19T02:51:03.596Z,30.85
2022-11-19T02:53:31.158Z,35.80
2022-11-19T02:56:13.223Z,31.13
2022-11-19T02:59:17.430Z,30.48
2022-11-19T03:02:06.071Z,32.45
2022-11-19T03:04:33.486Z,32.20
2022-11-19T03:07:03.086Z,32.20
2022-11-19T03:09:32.430Z,33.47
2022-11-19T03:12:09.926Z,32.28
2022-11-19T03:15:13.482Z,33.22
2022-11-19T03:17:51.511Z,33.33
2022-11-19T03:20:18.232Z,31.13
2022-11-19T03:22:57.239Z,34.88
2022-11-19T03:25:34.198Z,34.17
2022-11-19T03:28:09.109Z,33.47
2022-11-19T03:30:37.183Z,32.70
2022-11-19T03:33:13.654Z,32.85
2022-11-19T03:35:55.043Z,36.13
2022-11-19T03:38:43.825Z,36.28
2022-11-19T03:41:15.444Z,35.42
2022-11-19T03:43:45.412Z,34.63
2022-11-19T03:46:16.926Z,35.42
2022-11-19T03:48:47.092Z,37.90
2022-11-19T03:53:42.843Z,35.03
2022-11-19T03:56:13.496Z,35.67
2022-11-19T03:58:44.800Z,35.00
2022-11-19T04:01:12.145Z,40.15
2022-11-19T04:03:39.042Z,34.28
2022-11-19T04:06:06.510Z,31.67
2022-11-19T04:08:33.322Z,31.17
2022-11-19T04:13:25.732Z,32.42
2022-11-19T04:15:52.452Z,31.85
2022-11-19T04:18:19.530Z,34.92
2022-11-19T04:20:46.543Z,33.03
2022-11-19T04:23:13.293Z,32.80
2022-11-19T04:25:41.483Z,32.17
2022-11-19T04:28:08.154Z,32.22
2022-11-19T04:30:34.894Z,31.75
2022-11-19T04:33:01.665Z,32.72
2022-11-19T04:35:28.404Z,34.90
2022-11-19T04:37:55.118Z,33.05
2022-11-19T04:40:21.901Z,31.75
2022-11-19T04:42:48.575Z,34.55
2022-11-19T04:45:15.427Z,32.30
2022-11-19T04:47:42.242Z,38.80
2022-11-19T04:50:09.319Z,35.65
2022-11-19T04:52:40.619Z,33.63
2022-11-19T04:55:08.474Z,34.85
2022-11-19T04:57:35.227Z,34.00
2022-11-19T05:00:02.115Z,33.45
2022-11-19T05:02:28.806Z,34.05
2022-11-19T05:04:55.561Z,35.22
2022-11-19T05:07:22.433Z,32.13
2022-11-19T05:09:49.269Z,30.02
2022-11-19T05:12:16.031Z,32.42
2022-11-19T05:14:42.816Z,35.60
2022-11-19T05:17:09.594Z,31.35
2022-11-19T05:19:36.304Z,35.95
2022-11-19T05:22:03.160Z,35.53
2022-11-19T05:24:29.880Z,35.92
2022-11-19T05:26:56.632Z,39.38
2022-11-19T05:29:23.370Z,38.55
2022-11-19T05:31:50.054Z,38.33
2022-11-19T05:34:16.779Z,38.10
2022-11-19T05:36:43.477Z,37.35
2022-11-19T05:39:10.303Z,32.80
2022-11-19T05:41:37.012Z,32.42
2022-11-19T05:44:03.852Z,37.42
2022-11-19T05:46:30.581Z,34.38
2022-11-19T05:48:57.289Z,34.83
2022-11-19T05:51:24.027Z,36.45
2022-11-19T05:53:50.877Z,35.92
2022-11-19T05:56:17.661Z,33.28
2022-11-19T05:58:44.409Z,40.25
2022-11-19T06:01:11.079Z,37.38
2022-11-19T06:03:37.808Z,38.28
2022-11-19T06:06:04.921Z,36.60
2022-11-19T06:08:31.694Z,36.97
2022-11-19T06:10:58.440Z,39.67
2022-11-19T06:13:25.127Z,42.88
2022-11-19T06:15:52.733Z,42.40
2022-11-19T06:18:19.504Z,36.80
2022-11-19T06:20:46.216Z,35.17
2022-11-19T06:23:13.295Z,38.42
2022-11-19T06:25:40.272Z,40.45
2022-11-19T06:28:07.012Z,43.92
2022-11-19T06:30:33.686Z,40.58
2022-11-19T06:33:00.981Z,43.90
2022-11-19T06:35:27.659Z,42.78
2022-11-19T06:37:54.426Z,45.25
2022-11-19T06:40:21.116Z,45.00
2022-11-19T06:42:50.995Z,50.80
2022-11-19T06:47:48.787Z,42.03
2022-11-19T06:50:15.599Z,42.45
2022-11-19T06:52:42.378Z,40.80
2022-11-19T06:55:09.393Z,42.60
2022-11-19T06:57:36.379Z,41.03
2022-11-19T07:00:04.210Z,41.83
2022-11-19T07:02:30.911Z,35.13
2022-11-19T07:04:58.613Z,35.00
2022-11-19T07:07:25.429Z,36.40
2022-11-19T07:09:52.219Z,37.85
2022-11-19T07:12:18.948Z,40.08
2022-11-19T07:14:45.685Z,41.17
2022-11-19T07:17:12.355Z,35.90
2022-11-19T07:19:39.058Z,34.92
2022-11-19T07:22:05.905Z,29.05
2022-11-19T07:24:32.669Z,33.97
2022-11-19T07:26:59.521Z,35.50
2022-11-19T07:29:26.187Z,35.47
2022-11-19T07:31:53.486Z,44.70
2022-11-19T07:34:20.588Z,37.00
2022-11-19T07:36:48.431Z,41.92
2022-11-19T07:39:15.208Z,43.97
2022-11-19T07:42:00.952Z,42.13
2022-11-19T07:44:28.154Z,46.00
2022-11-19T07:46:54.931Z,45.03
2022-11-19T07:49:22.143Z,60.20
2022-11-19T07:51:49.481Z,45.78
2022-11-19T07:54:16.649Z,45.40
2022-11-19T07:56:43.866Z,44.83
2022-11-19T07:59:11.173Z,40.45
2022-11-19T08:01:38.414Z,42.08
2022-11-19T08:04:05.428Z,44.08
2022-11-19T08:06:34.492Z,43.33
2022-11-19T08:09:02.523Z,46.53
2022-11-19T08:11:29.607Z,41.47
2022-11-19T08:13:56.380Z,41.50
2022-11-19T08:16:41.867Z,42.40
2022-11-19T08:19:10.750Z,40.22
2022-11-19T08:21:41.302Z,44.97
2022-11-19T08:24:09.146Z,44.33
2022-11-19T08:26:36.728Z,43.88
2022-11-19T08:29:04.451Z,43.35
2022-11-19T08:31:31.260Z,43.28
2022-11-19T08:33:57.983Z,53.25
2022-11-19T08:36:24.694Z,52.25
2022-11-19T08:38:51.365Z,49.20
2022-11-19T08:41:36.331Z,52.90
2022-11-19T08:44:03.756Z,54.95
2022-11-19T08:46:30.454Z,53.38
2022-11-19T08:48:57.157Z,51.55
2022-11-19T08:51:24.025Z,50.55
2022-11-19T08:53:53.880Z,54.38
2022-11-19T08:56:21.078Z,54.53
2022-11-19T08:58:48.239Z,80.30
2022-11-19T09:01:17.361Z,49.20
2022-11-19T09:03:44.782Z,48.03
2022-11-19T09:06:12.329Z,42.63
2022-11-19T09:08:39.825Z,43.95
2022-11-19T09:11:09.225Z,40.97
2022-11-19T09:13:36.590Z,43.35
2022-11-19T09:16:04.143Z,44.30
2022-11-19T09:18:31.997Z,45.22
2022-11-19T09:20:59.333Z,35.17
2022-11-19T09:23:27.592Z,38.25
2022-11-19T09:26:08.066Z,39.83
2022-11-19T09:28:35.638Z,40.08
2022-11-19T09:31:06.622Z,38.38
2022-11-19T09:33:36.125Z,36.08
2022-11-19T09:36:03.599Z,40.78
2022-11-19T09:38:35.188Z,34.42
2022-11-19T09:41:40.841Z,40.50
2022-11-19T09:44:20.080Z,36.65
2022-11-19T09:46:53.293Z,39.05
2022-11-19T09:49:30.673Z,38.03
2022-11-19T09:52:05.488Z,39.28
2022-11-19T09:54:41.434Z,38.67
2022-11-19T09:57:14.579Z,39.08
2022-11-19T09:59:41.767Z,35.88
2022-11-19T10:02:20.975Z,39.25
2022-11-19T10:04:50.571Z,27.87
2022-11-19T10:07:55.799Z,33.70
2022-11-19T10:10:34.101Z,38.05
2022-11-19T10:13:20.860Z,36.55
2022-11-19T10:15:57.007Z,32.63
2022-11-19T10:18:35.505Z,30.67
2022-11-19T10:21:11.419Z,27.48
2022-11-19T10:24:04.490Z,27.10
2022-11-19T10:26:36.939Z,26.73
2022-11-19T10:29:14.963Z,24.50
2022-11-19T10:31:47.516Z,26.98
2022-11-19T10:34:29.696Z,26.08
2022-11-19T10:37:09.774Z,25.33
2022-11-19T10:39:41.914Z,23.80
2022-11-19T10:42:52.662Z,27.05
2022-11-19T10:45:24.267Z,25.17
2022-11-19T10:48:12.767Z,24.90
2022-11-19T10:50:39.889Z,22.65
2022-11-19T10:53:15.740Z,25.42
2022-11-19T10:55:51.469Z,23.88
2022-11-19T10:58:29.526Z,23.02
2022-11-19T11:00:59.085Z,24.35
2022-11-19T11:03:31.757Z,26.15
2022-11-19T11:06:06.876Z,23.88
2022-11-19T11:08:47.927Z,27.95
2022-11-19T11:11:47.058Z,28.45
2022-11-19T11:14:34.056Z,26.40
2022-11-19T11:17:01.909Z,30.55
2022-11-19T11:19:29.371Z,30.48
2022-11-19T11:21:58.053Z,25.60
2022-11-19T11:24:35.195Z,27.30
2022-11-19T11:27:22.521Z,25.98
2022-11-19T11:29:49.288Z,30.80
2022-11-19T11:32:32.009Z,28.80
2022-11-19T11:35:02.332Z,28.10
2022-11-19T11:37:33.743Z,34.60
2022-11-19T11:40:00.705Z,30.25
2022-11-19T11:42:29.544Z,32.05
2022-11-19T11:45:01.281Z,29.75
2022-11-19T11:47:29.812Z,29.48
2022-11-19T11:50:08.354Z,33.17
2022-11-19T11:52:45.539Z,34.70
2022-11-19T11:55:23.500Z,30.88
2022-11-19T11:57:55.182Z,28.10
2022-11-19T12:00:38.114Z,31.15
2022-11-19T12:03:11.121Z,28.35
2022-11-19T12:05:46.803Z,29.45
2022-11-19T12:08:32.260Z,30.52
2022-11-19T12:11:08.995Z,32.45
2022-11-19T12:13:45.003Z,29.85
2022-11-19T12:16:14.655Z,28.13
2022-11-19T12:18:56.318Z,29.02
2022-11-19T12:21:55.441Z,26.77
2022-11-19T12:24:54.533Z,27.25
2022-11-19T12:27:54.950Z,26.92
2022-11-19T12:30:29.320Z,27.10
2022-11-19T12:32:59.065Z,24.45
2022-11-19T12:35:33.535Z,26.05
2022-11-19T12:38:21.397Z,26.90
2022-11-19T12:40:51.188Z,25.92
2022-11-19T12:43:36.611Z,28.45
2022-11-19T12:46:11.903Z,23.65
2022-11-19T12:49:09.046Z,25.65
2022-11-19T12:51:52.714Z,27.10
2022-11-19T12:54:34.691Z,23.80
2022-11-19T12:57:17.490Z,25.73
2022-11-19T13:00:19.340Z,24.75
2022-11-19T13:03:08.854Z,24.42
2022-11-19T13:06:06.384Z,25.65
2022-11-19T13:08:39.270Z,26.83
2022-11-19T13:11:27.536Z,23.83
2022-11-19T13:14:05.566Z,20.80
2022-11-19T13:16:34.534Z,23.77
2022-11-19T13:19:12.540Z,22.30
2022-11-19T13:21:47.764Z,21.45
2022-11-19T13:24:26.225Z,25.15
2022-11-19T13:26:57.563Z,22.83
2022-11-19T13:29:27.322Z,24.23
2022-11-19T13:32:04.984Z,21.83
2022-11-19T13:34:49.534Z,24.13
2022-11-19T13:37:20.433Z,27.40
2022-11-19T13:39:53.704Z,24.90
2022-11-19T13:42:40.380Z,25.05
2022-11-19T13:45:14.851Z,25.00
2022-11-19T13:47:48.740Z,23.58
2022-11-19T13:50:31.839Z,26.17
2022-11-19T13:53:12.351Z,25.75
2022-11-19T13:55:43.122Z,24.90
2022-11-19T13:58:22.425Z,27.58
2022-11-19T14:01:08.447Z,24.30
2022-11-19T14:04:00.057Z,27.02
2022-11-19T14:06:44.997Z,25.77
2022-11-19T14:09:19.407Z,26.92
2022-11-19T14:12:11.952Z,23.65
2022-11-19T14:15:53.346Z,26.30
2022-11-19T14:18:54.828Z,25.25
2022-11-19T14:21:44.125Z,25.40
2022-11-19T14:24:44.877Z,26.83
2022-11-19T14:27:32.814Z,26.77
2022-11-19T14:30:13.097Z,22.85
2022-11-19T14:35:17.179Z,22.40
2022-11-19T14:37:46.765Z,26.55
2022-11-19T14:40:13.608Z,27.80
2022-11-19T14:43:20.641Z,25.95
2022-11-19T14:46:05.501Z,22.80
2022-11-19T14:48:41.460Z,28.77
2022-11-19T14:51:10.301Z,24.45
2022-11-19T14:53:48.567Z,25.38
2022-11-19T14:56:19.738Z,24.85
2022-11-19T14:58:59.257Z,23.75
2022-11-19T15:01:26.122Z,22.92
2022-11-19T15:03:59.908Z,28.70
2022-11-19T15:06:28.462Z,25.15
2022-11-19T15:09:02.049Z,28.23
2022-11-19T15:11:56.802Z,30.75
2022-11-19T15:14:29.820Z,30.33
2022-11-19T15:17:01.298Z,30.77
2022-11-19T15:19:57.557Z,26.83
2022-11-19T15:23:12.433Z,28.17
2022-11-19T15:26:01.053Z,28.20
2022-11-19T15:28:52.714Z,24.98
2022-11-19T15:31:38.796Z,25.02
2022-11-19T15:34:48.636Z,28.67
2022-11-19T15:37:22.726Z,27.70
2022-11-19T15:39:54.546Z,28.17
2022-11-19T15:42:30.850Z,25.00
2022-11-19T15:45:03.155Z,25.27
2022-11-19T15:47:53.855Z,26.33
2022-11-19T15:50:25.333Z,28.00
2022-11-19T15:53:14.578Z,26.30
2022-11-19T15:56:11.331Z,24.05
2022-11-19T15:58:45.708Z,24.85
2022-11-19T16:01:18.607Z,29.52
2022-11-19T16:03:45.820Z,24.80
2022-11-19T16:06:20.289Z,26.95
2022-11-19T16:09:00.596Z,25.73
2022-11-19T16:11:51.014Z,24.15
2022-11-19T16:14:44.997Z,28.40
2022-11-19T16:17:39.816Z,25.85
2022-11-19T16:20:10.272Z,26.15
2022-11-19T16:22:40.131Z,28.20
2022-11-19T16:25:14.753Z,25.83
2022-11-19T16:27:43.403Z,25.13
2022-11-19T16:30:22.234Z,33.33
2022-11-19T16:32:50.076Z,28.50
2022-11-19T16:35:29.280Z,26.63
2022-11-19T16:37:59.380Z,29.77
2022-11-19T16:40:27.372Z,30.05
2022-11-19T16:42:57.896Z,25.48
2022-11-19T16:45:28.028Z,27.10
2022-11-19T16:48:02.336Z,29.77
2022-11-19T16:50:43.793Z,27.52
2022-11-19T16:53:46.960Z,28.30
2022-11-19T16:56:16.948Z,25.98
2022-11-19T17:01:14.426Z,29.05
2022-11-19T17:03:42.704Z,27.40
2022-11-19T17:06:25.996Z,27.95
2022-11-19T17:08:57.952Z,26.02
2022-11-19T17:12:08.709Z,26.73
2022-11-19T17:14:36.480Z,28.13
2022-11-19T17:17:03.854Z,28.80
2022-11-19T17:19:36.018Z,31.45
2022-11-19T17:22:18.282Z,28.48
2022-11-19T17:24:46.871Z,27.42
2022-11-19T17:27:26.042Z,28.08
2022-11-19T17:30:04.137Z,31.57
2022-11-19T17:32:57.703Z,25.40
2022-11-19T17:35:51.282Z,30.50
2022-11-19T17:38:27.689Z,30.77
2022-11-19T17:41:02.756Z,28.25
2022-11-19T17:43:54.458Z,27.63
2022-11-19T17:46:24.308Z,26.92
2022-11-19T17:48:53.293Z,28.95
2022-11-19T17:51:22.730Z,32.17
2022-11-19T17:53:54.821Z,28.30
2022-11-19T17:56:32.322Z,30.77
2022-11-19T17:59:00.101Z,29.10
2022-11-19T18:01:29.339Z,30.13
2022-11-19T18:03:57.548Z,29.15
2022-11-19T18:06:26.395Z,30.38
2022-11-19T18:08:55.218Z,32.28
2022-11-19T18:11:26.886Z,30.42
2022-11-19T18:13:58.121Z,29.48
2022-11-19T18:16:29.274Z,31.50
2022-11-19T18:18:56.363Z,30.77
2022-11-19T18:21:24.441Z,29.88
2022-11-19T18:23:52.989Z,30.75
2022-11-19T18:26:25.485Z,31.80
2022-11-19T18:28:55.856Z,33.20
2022-11-19T18:31:28.814Z,31.58
2022-11-19T18:33:57.074Z,32.15
2022-11-19T18:36:25.502Z,31.05
2022-11-19T18:38:55.905Z,29.42
2022-11-19T18:44:09.915Z,33.50
2022-11-19T18:46:37.685Z,32.38
2022-11-19T18:49:04.944Z,29.00
2022-11-19T18:51:33.061Z,30.58
2022-11-19T18:54:00.526Z,32.40
2022-11-19T18:56:29.971Z,30.25
2022-11-19T18:59:01.809Z,33.17
2022-11-19T19:01:33.145Z,29.55
2022-11-19T19:04:00.393Z,28.67
2022-11-19T19:06:29.506Z,32.67
2022-11-19T19:08:56.916Z,30.98
2022-11-19T19:11:43.898Z,32.85
2022-11-19T19:14:11.228Z,30.33
2022-11-19T19:16:38.750Z,36.28
2022-11-19T19:19:06.095Z,31.42
2022-11-19T19:21:33.367Z,31.58
2022-11-19T19:24:00.441Z,34.25
2022-11-19T19:26:27.912Z,34.40
2022-11-19T19:28:56.093Z,34.05
2022-11-19T19:31:24.681Z,35.13
2022-11-19T19:33:53.222Z,31.25
2022-11-19T19:36:24.566Z,31.00
2022-11-19T19:38:51.881Z,29.27
2022-11-19T19:41:27.999Z,30.27
2022-11-19T19:43:58.497Z,30.90
2022-11-19T19:46:26.697Z,31.13
2022-11-19T19:48:57.810Z,34.38
2022-11-19T19:51:28.352Z,32.60
2022-11-19T19:53:56.582Z,32.08
2022-11-19T19:56:28.172Z,32.83
2022-11-19T19:58:56.939Z,30.45
2022-11-19T20:01:29.422Z,31.70
2022-11-19T20:04:12.023Z,33.08
2022-11-19T20:06:42.200Z,34.80
2022-11-19T20:11:39.441Z,29.05
2022-11-19T20:14:08.054Z,34.42
2022-11-19T20:16:39.521Z,33.60
2022-11-19T20:19:07.921Z,31.15
2022-11-19T20:21:36.884Z,33.03
2022-11-19T20:24:11.500Z,25.23
2022-11-19T20:26:40.282Z,38.85
2022-11-19T20:29:08.122Z,41.67
2022-11-19T20:31:36.111Z,33.20
2022-11-19T20:34:05.409Z,31.00
2022-11-19T20:36:35.646Z,31.88
2022-11-19T20:39:04.450Z,35.72
2022-11-19T20:41:50.827Z,35.83
2022-11-19T20:44:22.769Z,38.67
2022-11-19T20:47:03.347Z,36.00
2022-11-19T20:49:35.852Z,34.05
2022-11-19T20:52:04.247Z,33.13
2022-11-19T20:54:32.864Z,34.78
2022-11-19T20:57:00.742Z,34.55
2022-11-19T20:59:28.587Z,32.50
2022-11-19T21:01:57.148Z,34.17
2022-11-19T21:04:26.237Z,34.63
2022-11-19T21:06:56.388Z,36.05
2022-11-19T21:09:24.961Z,36.50
2022-11-19T21:11:52.580Z,37.83
2022-11-19T21:14:19.722Z,35.90
2022-11-19T21:16:47.753Z,38.58
2022-11-19T21:19:15.730Z,35.60
2022-11-19T21:21:44.637Z,37.95
2022-11-19T21:24:12.430Z,33.53
2022-11-19T21:26:39.929Z,37.45
2022-11-19T21:29:06.902Z,35.13
2022-11-19T21:31:39.304Z,37.83
2022-11-19T21:34:12.159Z,39.17
2022-11-19T21:36:40.621Z,35.88
2022-11-19T21:39:08.117Z,40.72
2022-11-19T21:41:35.241Z,32.92
2022-11-19T21:44:03.238Z,37.13
2022-11-19T21:46:30.444Z,36.80
2022-11-19T21:48:57.348Z,39.13
2022-11-19T21:51:25.250Z,40.22
2022-11-19T21:53:58.820Z,37.05
2022-11-19T21:56:27.320Z,35.15
2022-11-19T21:58:54.143Z,39.70
2022-11-19T22:01:21.136Z,36.20
2022-11-19T22:03:47.943Z,44.50
2022-11-19T22:06:14.894Z,38.28
2022-11-19T22:08:42.831Z,37.38
2022-11-19T22:11:29.268Z,40.50
2022-11-19T22:14:06.368Z,42.40
2022-11-19T22:16:35.325Z,41.60
2022-11-19T22:19:02.283Z,38.55
2022-11-19T22:21:29.496Z,40.35
2022-11-19T22:26:40.394Z,41.60
2022-11-19T22:29:07.130Z,40.45
2022-11-19T22:31:33.831Z,40.63
2022-11-19T22:34:00.518Z,39.42
2022-11-19T22:36:30.094Z,41.67
2022-11-19T22:38:56.755Z,39.38
2022-11-19T22:41:23.608Z,39.70
2022-11-19T22:43:50.937Z,41.08
2022-11-19T22:46:18.361Z,44.85
2022-11-19T22:48:45.281Z,45.63
2022-11-19T22:51:15.409Z,38.03
2022-11-19T22:56:10.928Z,42.05
2022-11-19T22:58:38.627Z,40.75
2022-11-19T23:01:07.622Z,38.70
2022-11-19T23:03:35.020Z,42.90
2022-11-19T23:06:01.743Z,43.10
2022-11-19T23:08:28.618Z,43.15
2022-11-19T23:11:04.480Z,40.58
2022-11-19T23:13:34.346Z,43.92
2022-11-19T23:16:10.905Z,42.70
2022-11-19T23:18:46.193Z,35.55
2022-11-19T23:21:26.494Z,42.22
2022-11-19T23:23:53.797Z,39.38
2022-11-19T23:26:23.276Z,36.65
2022-11-19T23:28:50.517Z,38.20
2022-11-19T23:31:21.029Z,38.95
2022-11-19T23:33:48.578Z,38.58
2022-11-19T23:36:20.873Z,39.45
2022-11-19T23:38:47.696Z,42.30
2022-11-19T23:41:16.751Z,40.42
2022-11-19T23:43:44.309Z,38.28
2022-11-19T23:46:20.197Z,40.05
2022-11-19T23:48:48.703Z,36.22
2022-11-19T23:51:21.680Z,43.35
2022-11-19T23:53:48.932Z,43.60
2022-11-19T23:56:17.225Z,41.85
2022-11-19T23:58:44.473Z,39.78
